Norway, Iowa
Current Conditions -  °F | °C
As of 3:52 PM on Sunday 25 Jan 2015 (Local Time) from KCID Reporting Station
Broken Clouds Broken Clouds  
Wind Chill: 17°   Ceiling: 4700
Heat Index: 28°   Visibility: 10mi
Dew Point: 21°   Wind: 15mph
Humidity: 75%   Direction: 30°NNE
Pressure: 29.95"   Gusts: NA
Location:  41.9°N, 91.92°W
Report Text: KCID 252152Z 03013KT 10SM BKN047 M02/M06 A2995 RMK AO2 SLP150 T10221061
Loading
Personal Weather Stations






























Interactive Weather Map New forecast layout! Learn more

10-Day Weather Forecast

Advertisements
Track Severe Weather on mobile